Time;durP1;ratioP1;P1;durP2;ratioP2;P2;SDS_P1;SDS_P2;PMS_P1;PMS_P2;Temp;Humidity;BMP_temperature;BMP_pressure;BME280_temperature;BME280_humidity;BME280_pressure;Samples;Min_cycle;Max_cycle;Signal;HPM_P1;HPM_P2
2022/05/28 00:01:16;;;;;;;3.03;2.22;;;13.90;99.90;;;;;;4984238;28;20100;-75
2022/05/28 00:03:45;;;;;;;2.85;2.10;;;14.00;99.90;;;;;;4985277;28;20018;-75
2022/05/28 00:06:21;;;;;;;4.30;2.38;;;14.00;99.90;;;;;;4982616;28;20027;-75
2022/05/28 00:08:49;;;;;;;2.92;1.73;;;14.00;99.90;;;;;;4982726;28;20026;-75
2022/05/28 00:11:24;;;;;;;2.50;2.00;;;14.00;99.90;;;;;;4977915;28;20023;-75
2022/05/28 00:13:53;;;;;;;2.27;1.73;;;14.10;99.90;;;;;;4976013;28;20472;-78
2022/05/28 00:16:21;;;;;;;1.67;1.55;;;14.10;99.90;;;;;;4979645;28;20367;-76
2022/05/28 00:18:51;;;;;;;2.65;1.83;;;14.10;99.90;;;;;;4982792;28;20027;-76
2022/05/28 00:21:21;;;;;;;1.90;1.65;;;14.10;99.90;;;;;;4984080;28;20061;-75
2022/05/28 00:23:49;;;;;;;2.38;1.80;;;14.20;99.90;;;;;;4985013;28;20025;-76
2022/05/28 00:26:17;;;;;;;3.72;1.88;;;14.20;99.90;;;;;;4985861;28;20874;-76
2022/05/28 00:28:45;;;;;;;2.55;1.98;;;14.20;99.90;;;;;;4983599;28;20037;-76
2022/05/28 00:31:13;;;;;;;2.35;1.90;;;14.20;99.90;;;;;;4984461;28;20018;-75
2022/05/28 00:33:41;;;;;;;2.40;2.00;;;14.20;99.90;;;;;;4985382;28;20057;-76
2022/05/28 00:36:10;;;;;;;3.10;2.17;;;14.30;99.90;;;;;;4985285;28;20018;-76
2022/05/28 00:38:40;;;;;;;4.10;1.98;;;14.40;99.90;;;;;;4983661;28;20030;-77
2022/05/28 00:41:08;;;;;;;3.63;1.90;;;14.40;99.90;;;;;;4984241;28;20034;-77
2022/05/28 00:43:39;;;;;;;3.80;2.10;;;14.50;99.90;;;;;;4983235;28;20030;-77
2022/05/28 00:46:13;;;;;;;3.78;2.13;;;14.50;99.90;;;;;;4984964;28;20097;-77
2022/05/28 00:48:45;;;;;;;2.92;1.88;;;14.60;99.90;;;;;;4983582;28;20147;-77
2022/05/28 00:51:20;;;;;;;2.53;2.00;;;14.60;99.90;;;;;;4984395;28;20566;-76
2022/05/28 00:53:48;;;;;;;3.05;2.20;;;14.60;99.90;;;;;;4984652;28;20037;-78
2022/05/28 00:56:17;;;;;;;2.92;1.95;;;14.60;99.90;;;;;;4987511;28;20073;-77
2022/05/28 00:58:44;;;;;;;8.15;1.80;;;14.70;99.90;;;;;;4985941;28;20036;-77
2022/05/28 01:01:21;;;;;;;2.65;2.08;;;14.70;99.90;;;;;;4987557;28;20384;-77
2022/05/28 01:04:28;;;;;;;2.40;2.08;;;14.70;99.90;;;;;;4984753;28;20035;-78
2022/05/28 01:06:59;;;;;;;2.25;1.90;;;14.80;99.90;;;;;;4980572;28;20034;-77
2022/05/28 01:09:38;;;;;;;2.65;1.63;;;14.90;99.90;;;;;;4980281;28;20090;-77
2022/05/28 01:12:17;;;;;;;2.03;1.63;;;14.80;99.90;;;;;;4983362;28;20015;-77
2022/05/28 01:15:01;;;;;;;3.30;1.77;;;14.90;99.90;;;;;;4983029;28;20527;-77
2022/05/28 01:17:43;;;;;;;2.15;1.45;;;15.00;99.90;;;;;;4982821;28;20050;-78
2022/05/28 01:20:29;;;;;;;1.83;1.58;;;15.00;99.90;;;;;;4983262;28;20038;-77
2022/05/28 01:23:13;;;;;;;3.85;1.20;;;15.00;99.90;;;;;;4984208;28;20041;-79
2022/05/28 01:26:08;;;;;;;2.47;1.65;;;15.10;99.90;;;;;;4984459;28;20109;-78
2022/05/28 01:28:48;;;;;;;1.80;1.42;;;15.20;99.90;;;;;;4974727;28;20432;-77
2022/05/28 01:31:17;;;;;;;3.08;1.55;;;15.20;99.90;;;;;;4974484;28;20054;-78
2022/05/28 01:33:46;;;;;;;5.40;1.60;;;15.20;99.90;;;;;;4974637;28;20436;-78
2022/05/28 01:36:16;;;;;;;1.45;1.20;;;15.30;99.90;;;;;;4974317;28;20018;-78
2022/05/28 01:38:46;;;;;;;2.20;1.17;;;15.30;99.90;;;;;;4974588;28;20027;-79
2022/05/28 01:41:15;;;;;;;1.92;1.33;;;15.30;99.90;;;;;;4974725;28;20030;-78
2022/05/28 01:43:47;;;;;;;1.42;0.98;;;15.30;99.90;;;;;;4974129;28;20019;-80
2022/05/28 01:46:17;;;;;;;1.23;0.93;;;15.40;99.90;;;;;;4974121;28;20058;-78
2022/05/28 01:48:47;;;;;;;5.00;1.10;;;15.40;99.90;;;;;;4974305;28;20022;-78
2022/05/28 01:51:17;;;;;;;1.52;1.00;;;15.40;99.90;;;;;;4974390;28;20043;-77
2022/05/28 01:56:33;;;;;;;1.48;1.00;;;15.60;99.90;;;;;;4974684;28;20098;-77
2022/05/28 01:59:00;;;;;;;1.92;1.00;;;15.70;99.90;;;;;;4974098;28;20077;-78
2022/05/28 02:01:29;;;;;;;1.95;0.90;;;15.80;99.90;;;;;;4973230;28;20027;-78
2022/05/28 02:04:01;;;;;;;1.42;1.00;;;15.80;99.90;;;;;;4972898;28;20058;-77
2022/05/28 02:06:29;;;;;;;1.95;1.10;;;15.90;99.90;;;;;;4972530;28;20106;-77
2022/05/28 02:08:57;;;;;;;1.45;1.13;;;15.90;99.90;;;;;;4972595;28;20022;-77
2022/05/28 02:11:43;;;;;;;1.60;0.93;;;15.80;99.90;;;;;;4972110;28;20124;-78
2022/05/28 02:14:20;;;;;;;1.08;0.85;;;15.90;99.90;;;;;;4971318;28;20027;-77
2022/05/28 02:16:59;;;;;;;1.85;1.20;;;15.90;99.90;;;;;;4971143;28;20038;-76
2022/05/28 02:19:44;;;;;;;3.13;1.40;;;15.90;99.90;;;;;;4970913;28;20464;-77
2022/05/28 02:22:38;;;;;;;1.38;0.98;;;16.00;99.90;;;;;;4972581;28;20023;-77
2022/05/28 02:25:13;;;;;;;1.20;1.02;;;16.00;99.90;;;;;;4970486;28;20031;-76
2022/05/28 02:27:43;;;;;;;3.95;1.00;;;16.00;99.90;;;;;;4977103;28;20023;-76
2022/05/28 02:30:12;;;;;;;0.93;0.82;;;16.10;99.90;;;;;;4976166;28;20034;-77
2022/05/28 02:32:39;;;;;;;1.38;0.88;;;16.20;99.90;;;;;;4977583;28;20026;-78
2022/05/28 02:35:09;;;;;;;1.85;1.05;;;16.30;99.90;;;;;;4977438;28;20023;-77
2022/05/28 02:37:37;;;;;;;1.13;0.77;;;16.20;99.90;;;;;;4977427;28;20031;-77
2022/05/28 02:40:05;;;;;;;1.35;0.70;;;16.30;99.90;;;;;;4977410;28;20507;-78
2022/05/28 02:42:33;;;;;;;1.20;0.70;;;16.30;99.90;;;;;;4975967;28;20043;-77
2022/05/28 02:45:01;;;;;;;2.13;0.88;;;16.30;99.90;;;;;;4975720;28;20046;-76
2022/05/28 02:47:29;;;;;;;2.25;0.93;;;16.30;99.90;;;;;;4977203;28;20022;-77
2022/05/28 02:49:56;;;;;;;1.35;0.65;;;16.40;99.90;;;;;;4977587;28;20130;-77
2022/05/28 02:52:27;;;;;;;5.00;1.10;;;16.40;99.90;;;;;;4977180;28;20023;-76
2022/05/28 02:54:57;;;;;;;2.95;0.90;;;16.50;99.90;;;;;;4977280;28;20037;-76
2022/05/28 02:57:25;;;;;;;2.45;0.70;;;16.60;99.90;;;;;;4977358;28;20043;-76
2022/05/28 02:59:53;;;;;;;4.20;0.73;;;16.60;99.90;;;;;;4977068;28;20365;-77
2022/05/28 03:02:21;;;;;;;1.20;0.70;;;16.60;99.90;;;;;;4977314;28;20027;-77
2022/05/28 03:04:48;;;;;;;1.35;0.85;;;16.50;99.90;;;;;;4977207;28;20051;-77
2022/05/28 03:07:16;;;;;;;4.68;0.98;;;16.40;99.90;;;;;;4976883;28;20492;-76
2022/05/28 03:09:44;;;;;;;0.88;0.63;;;16.40;99.90;;;;;;4976951;28;20498;-77
2022/05/28 03:12:12;;;;;;;0.65;0.60;;;16.40;99.90;;;;;;4976742;28;20022;-77
2022/05/28 03:14:39;;;;;;;2.00;1.10;;;16.30;99.90;;;;;;4976778;28;20086;-76
2022/05/28 03:17:07;;;;;;;2.88;1.30;;;16.30;99.90;;;;;;4976757;28;20074;-76
2022/05/28 03:19:35;;;;;;;1.48;0.82;;;16.30;99.90;;;;;;4976736;28;20034;-76
2022/05/28 03:22:03;;;;;;;1.48;0.98;;;16.30;99.90;;;;;;4976577;28;20053;-76
2022/05/28 03:24:30;;;;;;;1.52;1.08;;;16.20;99.90;;;;;;4976389;28;20026;-76
2022/05/28 03:26:59;;;;;;;1.33;0.60;;;16.20;99.90;;;;;;4976531;28;20424;-76
2022/05/28 03:29:27;;;;;;;3.85;0.73;;;16.20;99.90;;;;;;4976416;28;20384;-76
2022/05/28 03:31:54;;;;;;;1.27;0.90;;;16.20;99.90;;;;;;4976462;28;20030;-76
2022/05/28 03:34:22;;;;;;;1.80;0.85;;;16.20;99.90;;;;;;4976361;28;20023;-76
2022/05/28 03:36:50;;;;;;;1.00;0.90;;;16.30;99.90;;;;;;4975714;28;20038;-76
2022/05/28 03:39:18;;;;;;;1.92;0.90;;;16.30;99.90;;;;;;4975820;28;20472;-76
2022/05/28 03:41:46;;;;;;;2.03;0.90;;;16.30;99.90;;;;;;4976285;28;20031;-75
2022/05/28 03:44:14;;;;;;;1.98;1.08;;;16.20;99.90;;;;;;4976658;28;20117;-75
2022/05/28 03:46:42;;;;;;;1.23;0.80;;;16.30;99.90;;;;;;4976468;28;20030;-76
2022/05/28 03:49:35;;;;;;;1.48;0.95;;;16.30;99.90;;;;;;4976780;28;20049;-75
2022/05/28 03:52:04;;;;;;;1.48;1.00;;;16.30;99.90;;;;;;4976176;28;20047;-77
2022/05/28 03:54:32;;;;;;;1.13;0.63;;;16.30;99.90;;;;;;4975975;28;20051;-77
2022/05/28 03:57:06;;;;;;;1.40;0.70;;;16.30;99.90;;;;;;4976094;28;20074;-76
2022/05/28 03:59:34;;;;;;;1.00;0.80;;;16.20;99.90;;;;;;4975841;28;20487;-76
2022/05/28 04:02:03;;;;;;;1.77;0.90;;;16.20;99.90;;;;;;4975899;28;20025;-76
2022/05/28 04:04:31;;;;;;;2.47;0.90;;;16.20;99.90;;;;;;4975854;28;20030;-76
2022/05/28 04:07:01;;;;;;;1.98;0.93;;;16.20;99.90;;;;;;4975858;28;20122;-76
2022/05/28 04:09:29;;;;;;;1.08;0.90;;;16.30;99.90;;;;;;4976039;28;20023;-76
2022/05/28 04:11:57;;;;;;;2.22;1.00;;;16.20;99.90;;;;;;4975493;28;20031;-75
2022/05/28 04:14:25;;;;;;;3.92;1.20;;;16.30;99.90;;;;;;4975512;28;20387;-74
2022/05/28 04:16:56;;;;;;;1.52;1.08;;;16.20;99.90;;;;;;4975727;28;20034;-75
2022/05/28 04:19:24;;;;;;;1.73;1.00;;;16.20;99.90;;;;;;4975480;28;20027;-75
2022/05/28 04:21:51;;;;;;;1.00;0.85;;;16.30;99.90;;;;;;4975592;28;20038;-75
2022/05/28 04:24:19;;;;;;;4.32;1.17;;;16.30;99.90;;;;;;4975618;28;20499;-75
2022/05/28 04:26:47;;;;;;;1.45;0.80;;;16.30;99.90;;;;;;4975446;28;20038;-75
2022/05/28 04:29:15;;;;;;;3.97;0.85;;;16.40;99.90;;;;;;4974108;28;20432;-76
2022/05/28 04:31:42;;;;;;;1.75;1.08;;;16.40;99.90;;;;;;4975022;28;20023;-74
2022/05/28 04:34:10;;;;;;;1.25;0.93;;;16.40;99.90;;;;;;4975441;28;20023;-76
2022/05/28 04:36:38;;;;;;;2.25;0.90;;;16.40;99.90;;;;;;4975554;28;20391;-76
2022/05/28 04:39:06;;;;;;;2.03;1.00;;;16.40;99.90;;;;;;4975255;28;20125;-77
2022/05/28 04:41:33;;;;;;;1.25;0.80;;;16.40;99.90;;;;;;4975190;28;20118;-77
2022/05/28 04:44:01;;;;;;;1.50;0.98;;;16.30;99.90;;;;;;4975101;28;20055;-77
2022/05/28 04:46:29;;;;;;;1.77;0.90;;;16.30;99.90;;;;;;4975054;28;20389;-77
2022/05/28 04:48:57;;;;;;;2.88;1.13;;;16.30;99.90;;;;;;4974863;28;20031;-77
2022/05/28 04:51:25;;;;;;;1.35;0.80;;;16.30;99.90;;;;;;4974617;28;20588;-76
2022/05/28 04:53:53;;;;;;;2.85;1.05;;;16.30;99.90;;;;;;4974903;28;20121;-77
2022/05/28 04:56:21;;;;;;;1.67;0.90;;;16.30;99.90;;;;;;4974957;28;20113;-77
2022/05/28 04:58:48;;;;;;;1.25;0.93;;;16.40;99.90;;;;;;4974817;28;20030;-76
2022/05/28 05:01:19;;;;;;;1.75;0.90;;;16.40;99.90;;;;;;4974891;28;20027;-76
2022/05/28 05:03:47;;;;;;;2.25;0.93;;;16.40;99.90;;;;;;4974986;28;20023;-77
2022/05/28 05:06:15;;;;;;;1.45;1.00;;;16.40;99.90;;;;;;4974808;28;20031;-76
2022/05/28 05:08:43;;;;;;;1.20;1.02;;;16.40;99.90;;;;;;4974810;28;20030;-77
2022/05/28 05:11:11;;;;;;;2.05;0.98;;;16.40;99.90;;;;;;4974929;28;20383;-76
2022/05/28 05:13:39;;;;;;;1.75;1.15;;;16.40;99.90;;;;;;4974927;28;20527;-77
2022/05/28 05:16:13;;;;;;;1.77;1.27;;;16.40;99.90;;;;;;4974964;28;20086;-77
2022/05/28 05:18:41;;;;;;;4.13;1.05;;;16.40;99.90;;;;;;4974870;28;20125;-77
2022/05/28 05:21:11;;;;;;;1.25;0.88;;;16.40;99.90;;;;;;4974585;28;20037;-77
2022/05/28 05:23:41;;;;;;;1.27;1.00;;;16.50;99.90;;;;;;4974721;28;20050;-77
2022/05/28 05:26:18;;;;;;;1.15;0.90;;;16.50;99.90;;;;;;4974711;28;20031;-77
2022/05/28 05:28:47;;;;;;;1.35;0.88;;;16.60;99.90;;;;;;4974857;28;20029;-77
2022/05/28 05:31:15;;;;;;;0.70;0.63;;;16.70;99.90;;;;;;4974429;28;20033;-77
2022/05/28 05:33:43;;;;;;;2.30;0.88;;;16.70;99.90;;;;;;4974634;28;20400;-76
2022/05/28 05:36:11;;;;;;;1.40;1.05;;;16.80;99.90;;;;;;4974519;28;20484;-77
2022/05/28 05:38:39;;;;;;;1.67;1.00;;;16.80;99.90;;;;;;4974480;28;20053;-77
2022/05/28 05:41:07;;;;;;;1.10;0.77;;;16.70;99.90;;;;;;4974622;28;20031;-77
2022/05/28 05:43:35;;;;;;;3.53;1.00;;;16.70;99.90;;;;;;4974525;28;20038;-77
2022/05/28 05:46:04;;;;;;;1.73;1.00;;;16.70;99.90;;;;;;4974529;28;20034;-77
2022/05/28 05:48:32;;;;;;;1.85;1.20;;;16.60;99.90;;;;;;4974572;28;20026;-77
2022/05/28 05:51:09;;;;;;;2.40;1.30;;;16.60;99.90;;;;;;4974406;28;20050;-77
2022/05/28 05:53:37;;;;;;;3.63;1.08;;;16.60;99.90;;;;;;4974282;28;20034;-77
2022/05/28 05:56:05;;;;;;;0.95;0.80;;;16.50;99.90;;;;;;4974577;28;20023;-78
2022/05/28 05:58:36;;;;;;;1.95;1.20;;;16.40;99.90;;;;;;4974285;28;20105;-80
2022/05/28 06:01:05;;;;;;;1.58;1.00;;;16.30;99.90;;;;;;4991324;28;20041;-77
2022/05/28 06:03:33;;;;;;;3.05;1.63;;;16.20;99.90;;;;;;4997161;28;20034;-77
2022/05/28 06:06:03;;;;;;;2.20;1.10;;;16.20;99.90;;;;;;4997362;28;20510;-76
2022/05/28 06:08:31;;;;;;;2.50;1.00;;;16.10;99.90;;;;;;4997249;28;20057;-76
2022/05/28 06:11:00;;;;;;;1.63;1.05;;;16.10;99.90;;;;;;4997300;28;20034;-77
2022/05/28 06:13:28;;;;;;;1.77;0.82;;;16.00;99.90;;;;;;4997049;28;20019;-77
2022/05/28 06:15:55;;;;;;;2.13;0.95;;;15.90;99.90;;;;;;4997289;28;20019;-74
2022/05/28 06:18:23;;;;;;;1.80;1.10;;;15.90;99.90;;;;;;4997125;28;20018;-77
2022/05/28 06:20:53;;;;;;;2.40;1.60;;;15.80;99.90;;;;;;4996987;28;20082;-77
2022/05/28 06:23:21;;;;;;;2.30;1.00;;;15.80;99.90;;;;;;4996570;28;20045;-78
2022/05/28 06:25:49;;;;;;;1.92;1.20;;;15.70;99.90;;;;;;4997123;28;20037;-78
2022/05/28 06:28:17;;;;;;;1.48;1.17;;;15.70;99.90;;;;;;4996887;28;20105;-79
2022/05/28 06:30:46;;;;;;;1.25;1.10;;;15.60;99.90;;;;;;4996072;28;20027;-78
2022/05/28 06:33:14;;;;;;;3.03;1.30;;;15.60;99.90;;;;;;4996483;28;20435;-77
2022/05/28 06:35:42;;;;;;;6.00;1.30;;;15.60;99.90;;;;;;4996709;28;20030;-81
2022/05/28 06:38:10;;;;;;;2.08;1.55;;;15.50;99.90;;;;;;4996712;28;20536;-77
2022/05/28 06:40:38;;;;;;;2.83;1.77;;;15.50;99.90;;;;;;4996205;28;20041;-78
2022/05/28 06:43:06;;;;;;;1.95;1.33;;;15.50;99.90;;;;;;4985221;28;20023;-77
2022/05/28 06:45:34;;;;;;;4.85;1.52;;;15.50;99.90;;;;;;4986103;28;20124;-78
2022/05/28 06:48:02;;;;;;;2.58;1.40;;;15.50;99.90;;;;;;4987299;28;20026;-76
2022/05/28 06:53:15;;;;;;;2.97;1.73;;;15.50;99.90;;;;;;4986514;28;20085;-80
2022/05/28 06:55:43;;;;;;;2.75;1.25;;;15.50;99.90;;;;;;4984004;28;20033;-79
2022/05/28 06:58:11;;;;;;;2.55;1.55;;;15.50;99.90;;;;;;4995143;28;20018;-79
2022/05/28 07:00:39;;;;;;;1.95;1.00;;;15.50;99.90;;;;;;4994714;28;20031;-79
2022/05/28 07:03:12;;;;;;;2.40;1.40;;;15.50;99.90;;;;;;4994563;28;20022;-79
2022/05/28 07:05:39;;;;;;;2.53;1.63;;;15.40;99.90;;;;;;4992286;28;20058;-79
2022/05/28 07:08:07;;;;;;;1.98;1.48;;;15.50;99.90;;;;;;4994977;28;20089;-79
2022/05/28 07:10:39;;;;;;;3.60;1.58;;;15.40;99.90;;;;;;4994786;28;20098;-79
2022/05/28 07:13:07;;;;;;;2.22;1.63;;;15.40;99.90;;;;;;4990768;28;20034;-79
2022/05/28 07:15:35;;;;;;;2.28;1.92;;;15.40;99.90;;;;;;4976468;28;20065;-79
2022/05/28 07:18:03;;;;;;;4.35;2.60;;;15.40;99.90;;;;;;4979310;28;20404;-79
2022/05/28 07:20:31;;;;;;;3.63;2.58;;;15.30;99.90;;;;;;4977459;28;20034;-79
2022/05/28 07:22:59;;;;;;;3.58;2.40;;;15.30;99.90;;;;;;4974166;28;20026;-78
2022/05/28 07:25:26;;;;;;;5.03;2.63;;;15.30;99.90;;;;;;4975244;28;20027;-79
2022/05/28 07:27:54;;;;;;;4.53;2.45;;;15.30;99.90;;;;;;4974399;28;20031;-79
2022/05/28 07:30:22;;;;;;;6.50;2.28;;;15.20;99.90;;;;;;4974916;28;20026;-79
2022/05/28 07:32:50;;;;;;;3.63;2.05;;;15.20;99.90;;;;;;4974936;28;20023;-78
2022/05/28 07:35:18;;;;;;;2.58;1.80;;;15.20;99.90;;;;;;4989236;28;20026;-79
2022/05/28 07:37:45;;;;;;;3.03;1.70;;;15.20;99.90;;;;;;4993250;28;20023;-77
2022/05/28 07:40:13;;;;;;;3.00;1.88;;;15.10;99.90;;;;;;4990939;28;20030;-78
2022/05/28 07:42:41;;;;;;;2.10;1.33;;;15.10;99.90;;;;;;4993197;28;20389;-79
2022/05/28 07:45:09;;;;;;;2.65;1.73;;;15.00;99.90;;;;;;4992954;28;20026;-79
2022/05/28 07:47:37;;;;;;;2.88;1.73;;;15.00;99.90;;;;;;4992799;28;20050;-79
2022/05/28 07:50:05;;;;;;;2.58;1.75;;;15.00;99.90;;;;;;4991578;28;20049;-80
2022/05/28 07:52:33;;;;;;;2.72;1.42;;;14.90;99.90;;;;;;4992914;28;20022;-79
2022/05/28 07:55:01;;;;;;;2.35;1.63;;;14.90;99.90;;;;;;4992944;28;20053;-79
2022/05/28 07:57:29;;;;;;;3.78;1.48;;;14.90;99.90;;;;;;4992871;28;20446;-79
2022/05/28 07:59:56;;;;;;;2.03;1.52;;;14.90;99.90;;;;;;4988821;28;20113;-79
2022/05/28 08:02:24;;;;;;;2.15;1.58;;;14.80;99.90;;;;;;4975273;28;20461;-79
2022/05/28 08:04:52;;;;;;;3.38;1.73;;;14.80;99.90;;;;;;4974439;28;20015;-79
2022/05/28 08:07:20;;;;;;;3.50;1.70;;;14.80;99.90;;;;;;4974587;28;20019;-79
2022/05/28 08:09:47;;;;;;;5.10;1.70;;;14.70;99.90;;;;;;4974698;28;20033;-79
2022/05/28 08:12:15;;;;;;;3.17;1.63;;;14.60;99.90;;;;;;4974903;28;20081;-76
2022/05/28 08:14:43;;;;;;;3.20;1.83;;;14.60;99.90;;;;;;4982164;28;20052;-79
2022/05/28 08:17:10;;;;;;;2.30;1.58;;;14.60;99.90;;;;;;4980520;28;20015;-78
2022/05/28 08:19:38;;;;;;;3.22;1.00;;;14.60;99.90;;;;;;4975957;28;20046;-78
2022/05/28 08:24:51;;;;;;;1.10;0.70;;;14.60;99.90;;;;;;4978618;28;20387;-76
2022/05/28 08:27:19;;;;;;;0.70;0.60;;;14.50;99.90;;;;;;4974461;28;20027;-76
2022/05/28 08:29:47;;;;;;;1.25;0.98;;;14.50;99.90;;;;;;4974364;28;20026;-75
2022/05/28 08:32:18;;;;;;;0.93;0.70;;;14.40;99.90;;;;;;4974989;28;20022;-76
2022/05/28 08:34:46;;;;;;;1.13;0.82;;;14.40;99.90;;;;;;4974616;28;20034;-79
2022/05/28 08:37:14;;;;;;;1.60;0.93;;;14.30;99.90;;;;;;4980266;28;20034;-79
2022/05/28 08:39:41;;;;;;;1.50;1.00;;;14.30;99.90;;;;;;4992645;28;20113;-80
2022/05/28 08:42:12;;;;;;;1.20;0.85;;;14.30;99.90;;;;;;4990147;28;20415;-75
2022/05/28 08:44:42;;;;;;;4.53;1.00;;;14.30;99.90;;;;;;4976792;28;20022;-80
2022/05/28 08:47:30;;;;;;;3.58;1.00;;;14.20;99.90;;;;;;4974275;28;20050;-80
2022/05/28 08:49:58;;;;;;;3.53;1.35;;;14.20;99.90;;;;;;4974228;28;20035;-79
2022/05/28 08:52:35;;;;;;;2.28;1.20;;;14.20;99.90;;;;;;4974292;28;20476;-78
2022/05/28 08:55:16;;;;;;;2.15;1.02;;;14.10;99.90;;;;;;4974345;28;20018;-79
2022/05/28 08:58:10;;;;;;;1.70;1.00;;;14.10;99.90;;;;;;4974293;28;20111;-80
2022/05/28 09:00:59;;;;;;;1.27;0.95;;;14.10;99.90;;;;;;4972868;28;20159;-79
2022/05/28 09:03:50;;;;;;;2.20;1.17;;;14.10;99.90;;;;;;4988338;28;20014;-79
2022/05/28 09:06:23;;;;;;;2.92;1.52;;;14.00;99.90;;;;;;4982272;28;20058;-79
2022/05/28 09:08:54;;;;;;;1.58;1.23;;;14.00;99.90;;;;;;4993172;28;20026;-80
2022/05/28 09:11:42;;;;;;;3.50;1.92;;;13.90;99.90;;;;;;4992454;28;20022;-80
2022/05/28 09:14:22;;;;;;;1.77;1.20;;;13.80;99.90;;;;;;4989863;28;20375;-80
2022/05/28 09:16:53;;;;;;;1.95;1.20;;;13.80;99.90;;;;;;4992376;28;20498;-77
2022/05/28 09:19:25;;;;;;;2.70;1.77;;;13.80;99.90;;;;;;4988536;28;20031;-79
2022/05/28 09:21:53;;;;;;;1.88;1.30;;;13.80;99.90;;;;;;4975664;28;20084;-80
2022/05/28 09:24:30;;;;;;;2.47;1.17;;;13.80;99.90;;;;;;4989257;28;20026;-79
2022/05/28 09:27:30;;;;;;;2.97;1.48;;;13.80;99.90;;;;;;4992260;28;20029;-80
2022/05/28 09:30:20;;;;;;;1.67;1.20;;;13.80;99.90;;;;;;4992772;28;20022;-80
2022/05/28 09:32:50;;;;;;;2.13;1.20;;;13.80;99.90;;;;;;4991658;28;20033;-81
2022/05/28 09:35:27;;;;;;;3.80;1.58;;;13.70;99.90;;;;;;4992368;28;20023;-80
2022/05/28 09:38:04;;;;;;;3.00;1.10;;;13.70;99.90;;;;;;4984131;28;20046;-79
2022/05/28 09:40:41;;;;;;;1.95;1.20;;;13.70;99.90;;;;;;4979733;28;20034;-80
2022/05/28 09:43:27;;;;;;;2.22;1.08;;;13.60;99.90;;;;;;4981488;28;20480;-80
2022/05/28 09:46:46;;;;;;;3.08;1.05;;;13.60;99.90;;;;;;4981156;28;20353;-80
2022/05/28 09:49:26;;;;;;;2.08;1.27;;;13.60;99.90;;;;;;4934394;29;20591;-80
2022/05/28 09:51:58;;;;;;;1.55;0.95;;;13.60;99.90;;;;;;4935619;29;20052;-80
2022/05/28 09:54:30;;;;;;;2.22;1.20;;;13.60;99.90;;;;;;4968926;28;20034;-80
2022/05/28 09:56:59;;;;;;;1.98;1.10;;;13.60;99.90;;;;;;4990235;28;20026;-80
2022/05/28 09:59:37;;;;;;;1.80;0.90;;;13.60;99.90;;;;;;4991586;28;20131;-80
2022/05/28 10:02:14;;;;;;;1.80;0.80;;;13.60;99.90;;;;;;4978537;28;20169;-80
2022/05/28 10:05:13;;;;;;;1.70;1.20;;;13.50;99.90;;;;;;4976546;28;20484;-77
2022/05/28 10:07:45;;;;;;;1.50;1.10;;;13.50;99.90;;;;;;4975041;28;20081;-77
2022/05/28 10:10:35;;;;;;;2.33;1.30;;;13.50;99.90;;;;;;4976422;28;20010;-78
2022/05/28 10:13:14;;;;;;;2.65;1.48;;;13.50;99.90;;;;;;4975006;28;20081;-78
2022/05/28 10:15:46;;;;;;;3.10;0.98;;;13.50;99.90;;;;;;4978954;28;20086;-77
2022/05/28 10:18:33;;;;;;;2.70;1.52;;;13.50;99.90;;;;;;4995802;28;20022;-77
2022/05/28 10:21:14;;;;;;;2.53;1.67;;;13.50;99.90;;;;;;4995596;28;20553;-78
2022/05/28 10:23:51;;;;;;;2.92;1.50;;;13.40;99.90;;;;;;4987908;28;20432;-78
2022/05/28 10:26:30;;;;;;;5.15;1.45;;;13.40;99.90;;;;;;4976016;28;20488;-79
2022/05/28 10:29:06;;;;;;;3.20;1.70;;;13.40;99.90;;;;;;4975980;28;20026;-79
2022/05/28 10:31:38;;;;;;;2.10;1.40;;;13.40;99.90;;;;;;4975875;28;20034;-79
2022/05/28 10:34:07;;;;;;;1.65;1.15;;;13.40;99.90;;;;;;4975393;28;20019;-79
2022/05/28 10:36:36;;;;;;;5.95;1.52;;;13.30;99.90;;;;;;4988162;28;20038;-79
2022/05/28 10:39:11;;;;;;;1.30;1.02;;;13.30;99.90;;;;;;4994340;28;20026;-79
2022/05/28 10:41:41;;;;;;;2.40;1.27;;;13.20;99.90;;;;;;4992940;28;20027;-79
2022/05/28 10:44:12;;;;;;;2.25;1.30;;;13.30;99.90;;;;;;4994123;28;20049;-76
2022/05/28 10:47:01;;;;;;;2.40;1.25;;;13.20;99.90;;;;;;4993912;28;20026;-80
2022/05/28 10:49:43;;;;;;;1.92;1.35;;;13.20;99.90;;;;;;4994441;28;20022;-79
2022/05/28 10:52:28;;;;;;;3.00;1.20;;;13.20;99.90;;;;;;4994246;28;20082;-79
2022/05/28 10:55:09;;;;;;;1.67;1.17;;;13.20;99.90;;;;;;4994841;28;20030;-79
2022/05/28 10:57:49;;;;;;;1.50;1.08;;;13.20;99.90;;;;;;4993419;28;20018;-78
2022/05/28 11:00:28;;;;;;;3.08;1.35;;;13.20;99.90;;;;;;4994736;28;20066;-79
2022/05/28 11:03:16;;;;;;;1.65;1.10;;;13.10;99.90;;;;;;4994528;28;20019;-79
2022/05/28 11:06:04;;;;;;;1.77;1.30;;;13.10;99.90;;;;;;4990004;28;20369;-78
2022/05/28 11:09:08;;;;;;;2.17;1.30;;;13.20;99.90;;;;;;4975670;28;20035;-78
2022/05/28 11:11:56;;;;;;;1.67;1.33;;;13.10;99.90;;;;;;4975448;28;20501;-79
2022/05/28 11:15:18;;;;;;;3.90;1.40;;;13.00;99.90;;;;;;4975610;28;20015;-80
2022/05/28 11:18:17;;;;;;;2.45;1.60;;;13.00;99.90;;;;;;4934547;29;20083;-80
2022/05/28 11:21:02;;;;;;;4.72;1.30;;;13.00;99.90;;;;;;4976026;28;20035;-80
2022/05/28 11:23:43;;;;;;;2.90;1.45;;;13.00;99.90;;;;;;4975377;28;20074;-80
2022/05/28 11:26:28;;;;;;;2.90;1.40;;;12.90;99.90;;;;;;4977625;28;20029;-80
2022/05/28 11:29:20;;;;;;;3.17;1.88;;;12.90;99.90;;;;;;4977418;28;20026;-80
2022/05/28 11:31:56;;;;;;;2.35;1.52;;;12.80;99.90;;;;;;4975314;28;20026;-81
2022/05/28 11:34:31;;;;;;;3.58;1.50;;;12.80;99.90;;;;;;4974907;28;20015;-80
2022/05/28 11:37:06;;;;;;;1.95;1.30;;;12.80;99.90;;;;;;4973831;28;20031;-79
2022/05/28 11:40:03;;;;;;;2.60;1.73;;;12.70;99.90;;;;;;4974670;28;20034;-79
2022/05/28 11:42:48;;;;;;;2.97;1.58;;;12.80;99.90;;;;;;4974659;28;20384;-79
2022/05/28 11:45:34;;;;;;;2.70;1.57;;;12.80;99.90;;;;;;4974707;28;20026;-79
2022/05/28 11:51:52;;;;;;;2.40;1.38;;;12.70;99.90;;;;;;4961942;28;20046;-80
2022/05/28 11:54:37;;;;;;;3.78;1.30;;;12.60;99.90;;;;;;4974607;28;20026;-79
2022/05/28 11:57:13;;;;;;;1.83;1.20;;;12.70;99.90;;;;;;4974549;28;20019;-80
2022/05/28 11:59:43;;;;;;;1.83;1.30;;;12.60;99.90;;;;;;4973715;28;20023;-80
2022/05/28 12:02:29;;;;;;;4.63;1.38;;;12.60;99.90;;;;;;4972755;28;20428;-80
2022/05/28 12:04:56;;;;;;;1.60;1.17;;;12.60;99.90;;;;;;4974471;28;20097;-80
2022/05/28 12:07:39;;;;;;;3.85;1.13;;;12.60;99.90;;;;;;4974540;28;20350;-80
2022/05/28 12:10:16;;;;;;;2.38;1.13;;;12.60;99.90;;;;;;4974459;28;20019;-77
2022/05/28 12:12:58;;;;;;;2.28;1.42;;;12.60;99.90;;;;;;4974366;28;20026;-78
2022/05/28 12:15:30;;;;;;;3.45;1.13;;;12.60;99.90;;;;;;4974196;28;20065;-80
2022/05/28 12:17:57;;;;;;;2.13;1.38;;;12.60;99.90;;;;;;4974205;28;20516;-80
2022/05/28 12:20:36;;;;;;;2.92;1.45;;;12.60;99.90;;;;;;4973956;28;20030;-80
2022/05/28 12:23:05;;;;;;;4.15;1.67;;;12.50;99.90;;;;;;4974169;28;20515;-79
2022/05/28 12:25:39;;;;;;;1.80;1.20;;;12.50;99.90;;;;;;4974098;28;20079;-80
2022/05/28 12:28:12;;;;;;;7.13;1.52;;;12.50;99.90;;;;;;4974365;28;20110;-80
2022/05/28 12:30:46;;;;;;;3.85;1.50;;;12.50;99.90;;;;;;4974522;28;20027;-80
2022/05/28 12:33:25;;;;;;;5.05;1.30;;;12.40;99.90;;;;;;4974632;28;20027;-80
2022/05/28 12:36:11;;;;;;;3.47;1.27;;;12.40;99.90;;;;;;4973359;28;20034;-80
2022/05/28 12:38:38;;;;;;;1.90;1.20;;;12.40;99.90;;;;;;4974447;28;20018;-80
2022/05/28 12:41:14;;;;;;;3.03;1.20;;;12.40;99.90;;;;;;4974434;28;20065;-80
2022/05/28 12:43:52;;;;;;;2.25;1.02;;;12.40;99.90;;;;;;4974018;28;20043;-80
2022/05/28 12:46:38;;;;;;;1.60;1.05;;;12.30;99.90;;;;;;4977001;28;20080;-80
2022/05/28 12:49:22;;;;;;;1.20;0.93;;;12.30;99.90;;;;;;4974274;28;20019;-80
2022/05/28 12:52:04;;;;;;;1.15;0.80;;;12.30;99.90;;;;;;4974361;28;20105;-80
2022/05/28 12:54:34;;;;;;;4.22;1.48;;;12.30;99.90;;;;;;4974267;28;20050;-80
2022/05/28 12:57:06;;;;;;;2.28;1.27;;;12.30;99.90;;;;;;4974180;28;20430;-80
2022/05/28 12:59:39;;;;;;;1.75;1.17;;;12.30;99.90;;;;;;4974016;28;20403;-77
2022/05/28 13:02:16;;;;;;;1.67;1.00;;;12.30;99.90;;;;;;4978497;28;20026;-80
2022/05/28 13:05:08;;;;;;;1.73;0.88;;;12.20;99.90;;;;;;4992514;28;20449;-80
2022/05/28 13:07:59;;;;;;;1.38;0.93;;;12.20;99.90;;;;;;4963908;28;20122;-80
2022/05/28 13:10:29;;;;;;;1.52;0.98;;;12.20;99.90;;;;;;4989488;28;20026;-81
2022/05/28 13:13:33;;;;;;;1.52;0.93;;;12.10;99.90;;;;;;4992475;28;20421;-79
2022/05/28 13:16:14;;;;;;;2.25;1.13;;;12.10;99.90;;;;;;4976823;28;20026;-79
2022/05/28 13:18:59;;;;;;;2.45;1.02;;;12.00;99.90;;;;;;4977560;28;20390;-78
2022/05/28 13:21:45;;;;;;;1.17;0.80;;;12.00;99.90;;;;;;4984664;28;20499;-76
2022/05/28 13:24:21;;;;;;;1.08;0.80;;;12.00;99.90;;;;;;4998024;28;20034;-79
2022/05/28 13:26:57;;;;;;;1.83;1.10;;;11.90;99.90;;;;;;4983550;28;20049;-79
2022/05/28 13:29:43;;;;;;;2.53;1.20;;;11.90;99.90;;;;;;4984676;28;20027;-78
2022/05/28 13:32:28;;;;;;;2.65;1.40;;;11.90;99.90;;;;;;4983446;28;20030;-78